sensor_id;sensor_type;location;lat;lon;timestamp;P1;durP1;ratioP1;P2;durP2;ratioP2
74749;SDS011;63269;53.330;-6.288;2023-06-22T00:00:56;5.28;;;2.20;;
74749;SDS011;63269;53.330;-6.288;2023-06-22T00:03:23;5.50;;;2.53;;
74749;SDS011;63269;53.330;-6.288;2023-06-22T00:05:50;3.80;;;2.63;;
74749;SDS011;63269;53.330;-6.288;2023-06-22T00:08:17;3.17;;;2.40;;
74749;SDS011;63269;53.330;-6.288;2023-06-22T00:10:43;3.42;;;2.20;;
74749;SDS011;63269;53.330;-6.288;2023-06-22T00:13:09;3.08;;;2.22;;
74749;SDS011;63269;53.330;-6.288;2023-06-22T00:15:36;5.15;;;3.00;;
74749;SDS011;63269;53.330;-6.288;2023-06-22T00:18:04;4.80;;;2.78;;
74749;SDS011;63269;53.330;-6.288;2023-06-22T00:20:33;3.65;;;2.13;;
74749;SDS011;63269;53.330;-6.288;2023-06-22T00:23:02;5.20;;;3.00;;
74749;SDS011;63269;53.330;-6.288;2023-06-22T00:25:40;4.53;;;2.80;;
74749;SDS011;63269;53.330;-6.288;2023-06-22T00:28:06;3.10;;;2.70;;
74749;SDS011;63269;53.330;-6.288;2023-06-22T00:30:32;4.82;;;2.63;;
74749;SDS011;63269;53.330;-6.288;2023-06-22T00:32:59;4.43;;;2.55;;
74749;SDS011;63269;53.330;-6.288;2023-06-22T00:35:25;3.95;;;2.58;;
74749;SDS011;63269;53.330;-6.288;2023-06-22T00:37:55;7.70;;;2.65;;
74749;SDS011;63269;53.330;-6.288;2023-06-22T00:40:26;4.60;;;2.80;;
74749;SDS011;63269;53.330;-6.288;2023-06-22T00:42:52;5.63;;;2.95;;
74749;SDS011;63269;53.330;-6.288;2023-06-22T00:45:18;4.75;;;2.58;;
74749;SDS011;63269;53.330;-6.288;2023-06-22T00:47:43;5.15;;;3.13;;
74749;SDS011;63269;53.330;-6.288;2023-06-22T00:50:09;7.53;;;3.47;;
74749;SDS011;63269;53.330;-6.288;2023-06-22T00:52:43;7.40;;;3.20;;
74749;SDS011;63269;53.330;-6.288;2023-06-22T00:55:09;5.32;;;2.92;;
74749;SDS011;63269;53.330;-6.288;2023-06-22T00:57:35;6.30;;;3.15;;
74749;SDS011;63269;53.330;-6.288;2023-06-22T01:00:02;5.60;;;3.72;;
74749;SDS011;63269;53.330;-6.288;2023-06-22T01:02:31;5.53;;;3.92;;
74749;SDS011;63269;53.330;-6.288;2023-06-22T01:04:57;4.85;;;2.80;;
74749;SDS011;63269;53.330;-6.288;2023-06-22T01:10:02;6.85;;;2.85;;
74749;SDS011;63269;53.330;-6.288;2023-06-22T01:12:30;7.07;;;3.15;;
74749;SDS011;63269;53.330;-6.288;2023-06-22T01:15:43;5.10;;;2.78;;
74749;SDS011;63269;53.330;-6.288;2023-06-22T01:17:58;4.28;;;2.80;;
74749;SDS011;63269;53.330;-6.288;2023-06-22T01:20:25;4.47;;;2.83;;
74749;SDS011;63269;53.330;-6.288;2023-06-22T01:31:06;6.20;;;2.88;;
74749;SDS011;63269;53.330;-6.288;2023-06-22T01:33:35;4.63;;;2.92;;
74749;SDS011;63269;53.330;-6.288;2023-06-22T01:36:03;5.55;;;3.13;;
74749;SDS011;63269;53.330;-6.288;2023-06-22T01:38:30;4.50;;;2.90;;
74749;SDS011;63269;53.330;-6.288;2023-06-22T01:40:59;4.53;;;2.80;;
74749;SDS011;63269;53.330;-6.288;2023-06-22T01:43:26;3.90;;;2.50;;
74749;SDS011;63269;53.330;-6.288;2023-06-22T01:45:53;4.70;;;3.25;;
74749;SDS011;63269;53.330;-6.288;2023-06-22T01:48:19;5.03;;;3.20;;
74749;SDS011;63269;53.330;-6.288;2023-06-22T01:50:46;3.95;;;2.75;;
74749;SDS011;63269;53.330;-6.288;2023-06-22T01:53:12;3.95;;;2.70;;
74749;SDS011;63269;53.330;-6.288;2023-06-22T01:55:37;5.47;;;3.58;;
74749;SDS011;63269;53.330;-6.288;2023-06-22T01:58:03;4.30;;;2.50;;
74749;SDS011;63269;53.330;-6.288;2023-06-22T02:00:28;3.88;;;3.05;;
74749;SDS011;63269;53.330;-6.288;2023-06-22T02:03:02;4.68;;;2.90;;
74749;SDS011;63269;53.330;-6.288;2023-06-22T02:05:33;3.60;;;2.75;;
74749;SDS011;63269;53.330;-6.288;2023-06-22T02:10:37;5.45;;;2.92;;
74749;SDS011;63269;53.330;-6.288;2023-06-22T02:13:04;5.03;;;3.30;;
74749;SDS011;63269;53.330;-6.288;2023-06-22T02:15:32;5.13;;;2.75;;
74749;SDS011;63269;53.330;-6.288;2023-06-22T02:17:58;4.78;;;3.17;;
74749;SDS011;63269;53.330;-6.288;2023-06-22T02:20:24;4.00;;;3.17;;
74749;SDS011;63269;53.330;-6.288;2023-06-22T02:22:50;4.65;;;3.08;;
74749;SDS011;63269;53.330;-6.288;2023-06-22T02:25:15;5.57;;;3.15;;
74749;SDS011;63269;53.330;-6.288;2023-06-22T02:27:41;5.35;;;2.90;;
74749;SDS011;63269;53.330;-6.288;2023-06-22T02:30:09;4.35;;;3.20;;
74749;SDS011;63269;53.330;-6.288;2023-06-22T02:32:35;4.03;;;3.03;;
74749;SDS011;63269;53.330;-6.288;2023-06-22T02:35:01;4.05;;;2.90;;
74749;SDS011;63269;53.330;-6.288;2023-06-22T02:37:29;6.18;;;3.58;;
74749;SDS011;63269;53.330;-6.288;2023-06-22T02:39:55;4.78;;;2.97;;
74749;SDS011;63269;53.330;-6.288;2023-06-22T02:42:21;4.28;;;2.70;;
74749;SDS011;63269;53.330;-6.288;2023-06-22T02:44:46;5.43;;;3.10;;
74749;SDS011;63269;53.330;-6.288;2023-06-22T02:47:12;5.50;;;3.42;;
74749;SDS011;63269;53.330;-6.288;2023-06-22T02:49:38;4.63;;;2.72;;
74749;SDS011;63269;53.330;-6.288;2023-06-22T02:52:03;4.65;;;2.97;;
74749;SDS011;63269;53.330;-6.288;2023-06-22T02:54:29;4.32;;;2.92;;
74749;SDS011;63269;53.330;-6.288;2023-06-22T02:56:54;5.30;;;2.92;;
74749;SDS011;63269;53.330;-6.288;2023-06-22T02:59:20;4.75;;;3.10;;
74749;SDS011;63269;53.330;-6.288;2023-06-22T03:01:49;5.53;;;3.42;;
74749;SDS011;63269;53.330;-6.288;2023-06-22T03:04:15;4.30;;;2.72;;
74749;SDS011;63269;53.330;-6.288;2023-06-22T03:06:40;6.40;;;3.17;;
74749;SDS011;63269;53.330;-6.288;2023-06-22T03:09:06;3.58;;;2.63;;
74749;SDS011;63269;53.330;-6.288;2023-06-22T03:11:32;3.97;;;3.00;;
74749;SDS011;63269;53.330;-6.288;2023-06-22T03:13:58;5.85;;;2.85;;
74749;SDS011;63269;53.330;-6.288;2023-06-22T03:16:24;6.20;;;3.20;;
74749;SDS011;63269;53.330;-6.288;2023-06-22T03:18:49;3.35;;;2.80;;
74749;SDS011;63269;53.330;-6.288;2023-06-22T03:21:15;4.63;;;3.10;;
74749;SDS011;63269;53.330;-6.288;2023-06-22T03:23:41;6.07;;;3.00;;
74749;SDS011;63269;53.330;-6.288;2023-06-22T03:26:08;4.00;;;2.65;;
74749;SDS011;63269;53.330;-6.288;2023-06-22T03:28:34;4.32;;;2.90;;
74749;SDS011;63269;53.330;-6.288;2023-06-22T03:30:59;6.63;;;2.80;;
74749;SDS011;63269;53.330;-6.288;2023-06-22T03:33:25;5.22;;;3.17;;
74749;SDS011;63269;53.330;-6.288;2023-06-22T03:35:50;5.45;;;3.00;;
74749;SDS011;63269;53.330;-6.288;2023-06-22T03:38:16;5.93;;;3.40;;
74749;SDS011;63269;53.330;-6.288;2023-06-22T03:40:42;4.40;;;3.45;;
74749;SDS011;63269;53.330;-6.288;2023-06-22T03:43:07;5.68;;;3.38;;
74749;SDS011;63269;53.330;-6.288;2023-06-22T03:45:33;6.40;;;3.25;;
74749;SDS011;63269;53.330;-6.288;2023-06-22T03:47:58;6.10;;;4.10;;
74749;SDS011;63269;53.330;-6.288;2023-06-22T03:50:24;6.70;;;3.45;;
74749;SDS011;63269;53.330;-6.288;2023-06-22T03:52:49;5.07;;;3.30;;
74749;SDS011;63269;53.330;-6.288;2023-06-22T03:55:16;8.18;;;3.15;;
74749;SDS011;63269;53.330;-6.288;2023-06-22T03:57:42;3.60;;;2.95;;
74749;SDS011;63269;53.330;-6.288;2023-06-22T04:00:07;4.45;;;3.20;;
74749;SDS011;63269;53.330;-6.288;2023-06-22T04:02:34;6.50;;;3.38;;
74749;SDS011;63269;53.330;-6.288;2023-06-22T04:05:00;8.68;;;3.25;;
74749;SDS011;63269;53.330;-6.288;2023-06-22T04:07:25;3.63;;;2.90;;
74749;SDS011;63269;53.330;-6.288;2023-06-22T04:09:51;4.75;;;3.13;;
74749;SDS011;63269;53.330;-6.288;2023-06-22T04:12:16;3.78;;;3.05;;
74749;SDS011;63269;53.330;-6.288;2023-06-22T04:14:41;5.47;;;3.13;;
74749;SDS011;63269;53.330;-6.288;2023-06-22T04:17:07;3.53;;;2.50;;
74749;SDS011;63269;53.330;-6.288;2023-06-22T04:19:32;3.60;;;2.70;;
74749;SDS011;63269;53.330;-6.288;2023-06-22T04:21:58;6.03;;;3.00;;
74749;SDS011;63269;53.330;-6.288;2023-06-22T04:24:23;4.65;;;2.88;;
74749;SDS011;63269;53.330;-6.288;2023-06-22T04:26:49;6.38;;;3.30;;
74749;SDS011;63269;53.330;-6.288;2023-06-22T04:29:18;5.90;;;3.30;;
74749;SDS011;63269;53.330;-6.288;2023-06-22T04:31:44;4.20;;;2.60;;
74749;SDS011;63269;53.330;-6.288;2023-06-22T04:34:09;5.18;;;2.88;;
74749;SDS011;63269;53.330;-6.288;2023-06-22T04:36:38;4.80;;;2.80;;
74749;SDS011;63269;53.330;-6.288;2023-06-22T04:39:06;3.88;;;2.80;;
74749;SDS011;63269;53.330;-6.288;2023-06-22T04:41:37;3.10;;;2.80;;
74749;SDS011;63269;53.330;-6.288;2023-06-22T04:44:07;4.18;;;3.03;;
74749;SDS011;63269;53.330;-6.288;2023-06-22T04:46:34;4.47;;;2.45;;
74749;SDS011;63269;53.330;-6.288;2023-06-22T04:49:08;3.65;;;2.67;;
74749;SDS011;63269;53.330;-6.288;2023-06-22T04:51:41;4.75;;;2.90;;
74749;SDS011;63269;53.330;-6.288;2023-06-22T04:54:07;4.85;;;3.40;;
74749;SDS011;63269;53.330;-6.288;2023-06-22T04:56:33;5.85;;;3.67;;
74749;SDS011;63269;53.330;-6.288;2023-06-22T04:58:59;3.63;;;2.80;;
74749;SDS011;63269;53.330;-6.288;2023-06-22T05:01:25;2.97;;;2.40;;
74749;SDS011;63269;53.330;-6.288;2023-06-22T05:03:51;5.35;;;3.28;;
74749;SDS011;63269;53.330;-6.288;2023-06-22T05:06:25;4.22;;;2.97;;
74749;SDS011;63269;53.330;-6.288;2023-06-22T05:08:55;5.10;;;3.00;;
74749;SDS011;63269;53.330;-6.288;2023-06-22T05:11:23;5.25;;;3.13;;
74749;SDS011;63269;53.330;-6.288;2023-06-22T05:13:49;4.55;;;2.72;;
74749;SDS011;63269;53.330;-6.288;2023-06-22T05:16:15;5.00;;;3.47;;
74749;SDS011;63269;53.330;-6.288;2023-06-22T05:18:40;5.80;;;3.17;;
74749;SDS011;63269;53.330;-6.288;2023-06-22T05:21:06;5.97;;;2.88;;
74749;SDS011;63269;53.330;-6.288;2023-06-22T05:23:32;7.90;;;2.92;;
74749;SDS011;63269;53.330;-6.288;2023-06-22T05:25:57;5.47;;;3.28;;
74749;SDS011;63269;53.330;-6.288;2023-06-22T05:28:23;4.65;;;2.80;;
74749;SDS011;63269;53.330;-6.288;2023-06-22T05:30:49;10.77;;;3.63;;
74749;SDS011;63269;53.330;-6.288;2023-06-22T05:33:15;4.95;;;3.38;;
74749;SDS011;63269;53.330;-6.288;2023-06-22T05:35:40;4.45;;;3.28;;
74749;SDS011;63269;53.330;-6.288;2023-06-22T05:38:06;4.57;;;2.95;;
74749;SDS011;63269;53.330;-6.288;2023-06-22T05:40:32;5.28;;;3.10;;
74749;SDS011;63269;53.330;-6.288;2023-06-22T05:42:57;5.32;;;2.97;;
74749;SDS011;63269;53.330;-6.288;2023-06-22T05:45:22;4.75;;;3.03;;
74749;SDS011;63269;53.330;-6.288;2023-06-22T05:47:48;4.97;;;2.95;;
74749;SDS011;63269;53.330;-6.288;2023-06-22T05:50:13;3.22;;;2.85;;
74749;SDS011;63269;53.330;-6.288;2023-06-22T05:52:39;5.18;;;3.33;;
74749;SDS011;63269;53.330;-6.288;2023-06-22T05:55:04;5.00;;;3.30;;
74749;SDS011;63269;53.330;-6.288;2023-06-22T05:57:30;3.88;;;3.00;;
74749;SDS011;63269;53.330;-6.288;2023-06-22T05:59:56;4.43;;;3.15;;
74749;SDS011;63269;53.330;-6.288;2023-06-22T06:02:21;5.35;;;3.05;;
74749;SDS011;63269;53.330;-6.288;2023-06-22T06:04:46;3.72;;;3.20;;
74749;SDS011;63269;53.330;-6.288;2023-06-22T06:07:12;5.28;;;3.63;;
74749;SDS011;63269;53.330;-6.288;2023-06-22T06:09:37;4.65;;;3.58;;
74749;SDS011;63269;53.330;-6.288;2023-06-22T06:12:03;4.25;;;3.22;;
74749;SDS011;63269;53.330;-6.288;2023-06-22T06:14:28;4.03;;;3.03;;
74749;SDS011;63269;53.330;-6.288;2023-06-22T06:16:54;4.65;;;3.83;;
74749;SDS011;63269;53.330;-6.288;2023-06-22T06:19:19;6.72;;;3.38;;
74749;SDS011;63269;53.330;-6.288;2023-06-22T06:21:45;7.13;;;3.50;;
74749;SDS011;63269;53.330;-6.288;2023-06-22T06:24:11;7.47;;;3.40;;
74749;SDS011;63269;53.330;-6.288;2023-06-22T06:26:36;6.82;;;3.67;;
74749;SDS011;63269;53.330;-6.288;2023-06-22T06:29:02;5.05;;;3.50;;
74749;SDS011;63269;53.330;-6.288;2023-06-22T06:31:28;5.38;;;3.80;;
74749;SDS011;63269;53.330;-6.288;2023-06-22T06:33:54;5.22;;;4.00;;
74749;SDS011;63269;53.330;-6.288;2023-06-22T06:36:19;6.40;;;3.63;;
74749;SDS011;63269;53.330;-6.288;2023-06-22T06:38:45;6.00;;;3.95;;
74749;SDS011;63269;53.330;-6.288;2023-06-22T06:41:12;5.07;;;4.10;;
74749;SDS011;63269;53.330;-6.288;2023-06-22T06:43:38;5.35;;;3.63;;
74749;SDS011;63269;53.330;-6.288;2023-06-22T06:46:04;5.35;;;4.05;;
74749;SDS011;63269;53.330;-6.288;2023-06-22T06:48:29;5.45;;;4.13;;
74749;SDS011;63269;53.330;-6.288;2023-06-22T06:50:55;5.78;;;3.90;;
74749;SDS011;63269;53.330;-6.288;2023-06-22T06:53:20;5.45;;;4.18;;
74749;SDS011;63269;53.330;-6.288;2023-06-22T06:55:46;5.57;;;4.18;;
74749;SDS011;63269;53.330;-6.288;2023-06-22T06:58:11;4.22;;;3.60;;
74749;SDS011;63269;53.330;-6.288;2023-06-22T07:00:38;4.60;;;3.70;;
74749;SDS011;63269;53.330;-6.288;2023-06-22T07:03:04;6.35;;;4.32;;
74749;SDS011;63269;53.330;-6.288;2023-06-22T07:05:30;5.68;;;3.50;;
74749;SDS011;63269;53.330;-6.288;2023-06-22T07:07:55;4.22;;;3.50;;
74749;SDS011;63269;53.330;-6.288;2023-06-22T07:10:21;7.85;;;4.65;;
74749;SDS011;63269;53.330;-6.288;2023-06-22T07:12:46;4.45;;;4.05;;
74749;SDS011;63269;53.330;-6.288;2023-06-22T07:15:13;6.00;;;3.75;;
74749;SDS011;63269;53.330;-6.288;2023-06-22T07:17:38;6.25;;;3.88;;
74749;SDS011;63269;53.330;-6.288;2023-06-22T07:20:06;6.32;;;4.60;;
74749;SDS011;63269;53.330;-6.288;2023-06-22T07:22:38;7.53;;;4.13;;
74749;SDS011;63269;53.330;-6.288;2023-06-22T07:25:04;5.85;;;4.28;;
74749;SDS011;63269;53.330;-6.288;2023-06-22T07:27:37;6.43;;;4.18;;
74749;SDS011;63269;53.330;-6.288;2023-06-22T07:30:05;4.82;;;4.32;;
74749;SDS011;63269;53.330;-6.288;2023-06-22T07:32:31;4.82;;;4.32;;
74749;SDS011;63269;53.330;-6.288;2023-06-22T07:34:56;5.72;;;4.30;;
74749;SDS011;63269;53.330;-6.288;2023-06-22T07:37:21;5.47;;;4.18;;
74749;SDS011;63269;53.330;-6.288;2023-06-22T07:39:47;6.90;;;4.88;;
74749;SDS011;63269;53.330;-6.288;2023-06-22T07:42:13;5.72;;;4.32;;
74749;SDS011;63269;53.330;-6.288;2023-06-22T07:44:43;5.20;;;4.07;;
74749;SDS011;63269;53.330;-6.288;2023-06-22T07:47:09;5.60;;;4.10;;
74749;SDS011;63269;53.330;-6.288;2023-06-22T07:49:34;6.00;;;4.20;;
74749;SDS011;63269;53.330;-6.288;2023-06-22T07:52:00;6.82;;;4.00;;
74749;SDS011;63269;53.330;-6.288;2023-06-22T07:54:26;6.03;;;3.92;;
74749;SDS011;63269;53.330;-6.288;2023-06-22T07:56:52;4.07;;;3.58;;
74749;SDS011;63269;53.330;-6.288;2023-06-22T07:59:17;4.70;;;3.53;;
74749;SDS011;63269;53.330;-6.288;2023-06-22T08:01:43;6.50;;;4.45;;
74749;SDS011;63269;53.330;-6.288;2023-06-22T08:04:08;5.88;;;4.00;;
74749;SDS011;63269;53.330;-6.288;2023-06-22T08:06:34;8.30;;;4.05;;
74749;SDS011;63269;53.330;-6.288;2023-06-22T08:08:59;6.90;;;3.72;;
74749;SDS011;63269;53.330;-6.288;2023-06-22T08:11:25;8.43;;;4.03;;
74749;SDS011;63269;53.330;-6.288;2023-06-22T08:13:51;7.03;;;3.80;;
74749;SDS011;63269;53.330;-6.288;2023-06-22T08:16:16;4.93;;;3.67;;
74749;SDS011;63269;53.330;-6.288;2023-06-22T08:18:42;4.35;;;3.92;;
74749;SDS011;63269;53.330;-6.288;2023-06-22T08:21:08;5.88;;;3.97;;
74749;SDS011;63269;53.330;-6.288;2023-06-22T08:23:33;8.45;;;4.10;;
74749;SDS011;63269;53.330;-6.288;2023-06-22T08:26:00;4.45;;;3.28;;
74749;SDS011;63269;53.330;-6.288;2023-06-22T08:28:25;4.68;;;3.70;;
74749;SDS011;63269;53.330;-6.288;2023-06-22T08:30:51;5.18;;;3.60;;
74749;SDS011;63269;53.330;-6.288;2023-06-22T08:33:16;5.30;;;3.63;;
74749;SDS011;63269;53.330;-6.288;2023-06-22T08:35:42;8.63;;;4.20;;
74749;SDS011;63269;53.330;-6.288;2023-06-22T08:38:08;5.88;;;4.30;;
74749;SDS011;63269;53.330;-6.288;2023-06-22T08:40:34;4.93;;;3.75;;
74749;SDS011;63269;53.330;-6.288;2023-06-22T08:42:59;5.63;;;3.53;;
74749;SDS011;63269;53.330;-6.288;2023-06-22T08:45:24;5.25;;;3.72;;
74749;SDS011;63269;53.330;-6.288;2023-06-22T08:47:50;5.70;;;3.40;;
74749;SDS011;63269;53.330;-6.288;2023-06-22T08:50:15;4.63;;;3.55;;
74749;SDS011;63269;53.330;-6.288;2023-06-22T08:52:41;9.60;;;3.75;;
74749;SDS011;63269;53.330;-6.288;2023-06-22T08:55:06;10.27;;;4.32;;
74749;SDS011;63269;53.330;-6.288;2023-06-22T08:57:32;7.43;;;3.63;;
74749;SDS011;63269;53.330;-6.288;2023-06-22T08:59:58;8.02;;;3.50;;
74749;SDS011;63269;53.330;-6.288;2023-06-22T09:02:24;8.00;;;3.53;;
74749;SDS011;63269;53.330;-6.288;2023-06-22T09:04:56;6.13;;;3.63;;
74749;SDS011;63269;53.330;-6.288;2023-06-22T09:07:22;6.65;;;3.70;;
74749;SDS011;63269;53.330;-6.288;2023-06-22T09:09:49;8.45;;;3.95;;
74749;SDS011;63269;53.330;-6.288;2023-06-22T09:12:15;5.80;;;3.95;;
74749;SDS011;63269;53.330;-6.288;2023-06-22T09:14:41;5.70;;;4.00;;
74749;SDS011;63269;53.330;-6.288;2023-06-22T09:17:07;6.10;;;3.50;;
74749;SDS011;63269;53.330;-6.288;2023-06-22T09:19:32;4.35;;;3.45;;
74749;SDS011;63269;53.330;-6.288;2023-06-22T09:21:58;6.95;;;3.70;;
74749;SDS011;63269;53.330;-6.288;2023-06-22T09:24:23;5.57;;;3.40;;
74749;SDS011;63269;53.330;-6.288;2023-06-22T09:26:49;4.30;;;3.33;;
74749;SDS011;63269;53.330;-6.288;2023-06-22T09:29:15;6.35;;;3.85;;
74749;SDS011;63269;53.330;-6.288;2023-06-22T09:31:40;4.95;;;3.40;;
74749;SDS011;63269;53.330;-6.288;2023-06-22T09:34:06;8.35;;;3.80;;
74749;SDS011;63269;53.330;-6.288;2023-06-22T09:36:31;7.00;;;3.53;;
74749;SDS011;63269;53.330;-6.288;2023-06-22T09:38:57;5.57;;;3.70;;
74749;SDS011;63269;53.330;-6.288;2023-06-22T09:41:24;7.32;;;3.42;;
74749;SDS011;63269;53.330;-6.288;2023-06-22T09:43:49;7.85;;;3.88;;
74749;SDS011;63269;53.330;-6.288;2023-06-22T09:46:15;5.30;;;3.17;;
74749;SDS011;63269;53.330;-6.288;2023-06-22T09:48:41;4.72;;;3.47;;
74749;SDS011;63269;53.330;-6.288;2023-06-22T09:51:06;7.53;;;3.80;;
74749;SDS011;63269;53.330;-6.288;2023-06-22T09:53:32;5.85;;;2.95;;
74749;SDS011;63269;53.330;-6.288;2023-06-22T09:55:59;5.15;;;3.33;;
74749;SDS011;63269;53.330;-6.288;2023-06-22T09:58:25;4.47;;;3.40;;
74749;SDS011;63269;53.330;-6.288;2023-06-22T10:00:50;8.73;;;3.45;;
74749;SDS011;63269;53.330;-6.288;2023-06-22T10:03:16;6.85;;;3.33;;
74749;SDS011;63269;53.330;-6.288;2023-06-22T10:05:41;4.72;;;3.10;;
74749;SDS011;63269;53.330;-6.288;2023-06-22T10:08:07;5.57;;;3.38;;
74749;SDS011;63269;53.330;-6.288;2023-06-22T10:10:34;3.97;;;3.05;;
74749;SDS011;63269;53.330;-6.288;2023-06-22T10:13:02;4.10;;;2.95;;
74749;SDS011;63269;53.330;-6.288;2023-06-22T10:15:35;7.63;;;4.43;;
74749;SDS011;63269;53.330;-6.288;2023-06-22T10:18:00;4.22;;;3.40;;
74749;SDS011;63269;53.330;-6.288;2023-06-22T10:20:25;5.78;;;3.05;;
74749;SDS011;63269;53.330;-6.288;2023-06-22T10:22:51;4.35;;;3.10;;
74749;SDS011;63269;53.330;-6.288;2023-06-22T10:25:17;5.07;;;3.63;;
74749;SDS011;63269;53.330;-6.288;2023-06-22T10:27:42;4.45;;;3.38;;
74749;SDS011;63269;53.330;-6.288;2023-06-22T10:30:08;4.97;;;3.67;;
74749;SDS011;63269;53.330;-6.288;2023-06-22T10:32:35;4.40;;;3.20;;
74749;SDS011;63269;53.330;-6.288;2023-06-22T10:35:01;6.50;;;3.63;;
74749;SDS011;63269;53.330;-6.288;2023-06-22T10:37:27;3.35;;;3.05;;
74749;SDS011;63269;53.330;-6.288;2023-06-22T10:39:52;5.63;;;2.85;;
74749;SDS011;63269;53.330;-6.288;2023-06-22T10:42:18;4.03;;;2.90;;
74749;SDS011;63269;53.330;-6.288;2023-06-22T10:44:43;6.70;;;2.90;;
74749;SDS011;63269;53.330;-6.288;2023-06-22T10:47:09;4.07;;;3.33;;
74749;SDS011;63269;53.330;-6.288;2023-06-22T10:49:37;3.95;;;3.13;;
74749;SDS011;63269;53.330;-6.288;2023-06-22T10:52:03;3.55;;;3.00;;
74749;SDS011;63269;53.330;-6.288;2023-06-22T10:54:29;4.38;;;3.03;;
74749;SDS011;63269;53.330;-6.288;2023-06-22T10:56:54;5.47;;;2.92;;
74749;SDS011;63269;53.330;-6.288;2023-06-22T10:59:20;4.25;;;2.65;;
74749;SDS011;63269;53.330;-6.288;2023-06-22T11:01:46;6.15;;;2.97;;
74749;SDS011;63269;53.330;-6.288;2023-06-22T11:04:12;8.05;;;3.10;;
74749;SDS011;63269;53.330;-6.288;2023-06-22T11:06:37;5.03;;;2.88;;
74749;SDS011;63269;53.330;-6.288;2023-06-22T11:09:02;5.10;;;2.80;;
74749;SDS011;63269;53.330;-6.288;2023-06-22T11:11:29;3.80;;;2.80;;
74749;SDS011;63269;53.330;-6.288;2023-06-22T11:13:54;3.47;;;3.00;;
74749;SDS011;63269;53.330;-6.288;2023-06-22T11:16:20;3.55;;;2.50;;
74749;SDS011;63269;53.330;-6.288;2023-06-22T11:18:45;5.63;;;2.97;;
74749;SDS011;63269;53.330;-6.288;2023-06-22T11:21:10;4.32;;;3.00;;
74749;SDS011;63269;53.330;-6.288;2023-06-22T11:23:36;6.65;;;3.42;;
74749;SDS011;63269;53.330;-6.288;2023-06-22T11:26:01;3.33;;;2.60;;
74749;SDS011;63269;53.330;-6.288;2023-06-22T11:28:27;4.15;;;2.67;;
74749;SDS011;63269;53.330;-6.288;2023-06-22T11:30:52;4.93;;;2.63;;
74749;SDS011;63269;53.330;-6.288;2023-06-22T11:33:18;3.45;;;2.70;;
74749;SDS011;63269;53.330;-6.288;2023-06-22T11:35:43;4.45;;;2.92;;
74749;SDS011;63269;53.330;-6.288;2023-06-22T11:38:09;4.90;;;2.92;;
74749;SDS011;63269;53.330;-6.288;2023-06-22T11:40:34;3.58;;;2.55;;
74749;SDS011;63269;53.330;-6.288;2023-06-22T11:43:00;3.72;;;2.90;;
74749;SDS011;63269;53.330;-6.288;2023-06-22T11:45:25;6.85;;;3.33;;
74749;SDS011;63269;53.330;-6.288;2023-06-22T11:47:50;3.47;;;3.17;;
74749;SDS011;63269;53.330;-6.288;2023-06-22T11:50:16;4.57;;;3.15;;
74749;SDS011;63269;53.330;-6.288;2023-06-22T11:52:41;4.10;;;2.88;;
74749;SDS011;63269;53.330;-6.288;2023-06-22T11:55:07;4.32;;;2.70;;
74749;SDS011;63269;53.330;-6.288;2023-06-22T11:57:33;3.75;;;3.17;;
74749;SDS011;63269;53.330;-6.288;2023-06-22T12:00:00;6.25;;;2.90;;
74749;SDS011;63269;53.330;-6.288;2023-06-22T12:02:31;3.97;;;2.42;;
74749;SDS011;63269;53.330;-6.288;2023-06-22T12:04:56;5.70;;;3.08;;
74749;SDS011;63269;53.330;-6.288;2023-06-22T12:07:23;3.72;;;2.92;;
74749;SDS011;63269;53.330;-6.288;2023-06-22T12:09:48;3.58;;;2.78;;
74749;SDS011;63269;53.330;-6.288;2023-06-22T12:12:14;4.25;;;2.83;;
74749;SDS011;63269;53.330;-6.288;2023-06-22T12:14:39;3.45;;;2.85;;
74749;SDS011;63269;53.330;-6.288;2023-06-22T12:17:05;5.10;;;2.60;;
74749;SDS011;63269;53.330;-6.288;2023-06-22T12:19:30;4.05;;;3.30;;
74749;SDS011;63269;53.330;-6.288;2023-06-22T12:21:56;5.03;;;3.40;;
74749;SDS011;63269;53.330;-6.288;2023-06-22T12:24:21;3.88;;;3.35;;
74749;SDS011;63269;53.330;-6.288;2023-06-22T12:26:47;6.05;;;2.85;;
74749;SDS011;63269;53.330;-6.288;2023-06-22T12:29:12;3.92;;;3.00;;
74749;SDS011;63269;53.330;-6.288;2023-06-22T12:31:37;4.07;;;3.05;;
74749;SDS011;63269;53.330;-6.288;2023-06-22T12:34:04;4.38;;;2.38;;
74749;SDS011;63269;53.330;-6.288;2023-06-22T12:36:30;3.72;;;2.90;;
74749;SDS011;63269;53.330;-6.288;2023-06-22T12:38:55;4.43;;;2.90;;
74749;SDS011;63269;53.330;-6.288;2023-06-22T12:41:20;5.53;;;2.63;;
74749;SDS011;63269;53.330;-6.288;2023-06-22T12:43:46;5.30;;;3.05;;
74749;SDS011;63269;53.330;-6.288;2023-06-22T12:46:11;5.13;;;3.03;;
74749;SDS011;63269;53.330;-6.288;2023-06-22T12:48:37;5.68;;;3.42;;
74749;SDS011;63269;53.330;-6.288;2023-06-22T12:51:07;4.13;;;2.80;;
74749;SDS011;63269;53.330;-6.288;2023-06-22T12:53:33;3.50;;;3.20;;
74749;SDS011;63269;53.330;-6.288;2023-06-22T12:55:58;3.90;;;2.90;;
74749;SDS011;63269;53.330;-6.288;2023-06-22T12:58:24;3.03;;;2.38;;
74749;SDS011;63269;53.330;-6.288;2023-06-22T13:00:49;2.88;;;2.50;;
74749;SDS011;63269;53.330;-6.288;2023-06-22T13:03:15;3.70;;;3.08;;
74749;SDS011;63269;53.330;-6.288;2023-06-22T13:05:40;3.75;;;2.65;;
74749;SDS011;63269;53.330;-6.288;2023-06-22T13:08:05;4.75;;;3.40;;
74749;SDS011;63269;53.330;-6.288;2023-06-22T13:10:31;3.13;;;2.75;;
74749;SDS011;63269;53.330;-6.288;2023-06-22T13:12:56;5.00;;;3.22;;
74749;SDS011;63269;53.330;-6.288;2023-06-22T13:15:26;5.07;;;2.55;;
74749;SDS011;63269;53.330;-6.288;2023-06-22T13:17:52;4.43;;;2.50;;
74749;SDS011;63269;53.330;-6.288;2023-06-22T13:20:18;4.82;;;3.10;;
74749;SDS011;63269;53.330;-6.288;2023-06-22T13:22:43;4.80;;;2.67;;
74749;SDS011;63269;53.330;-6.288;2023-06-22T13:25:09;5.05;;;3.10;;
74749;SDS011;63269;53.330;-6.288;2023-06-22T13:27:38;4.47;;;2.85;;
74749;SDS011;63269;53.330;-6.288;2023-06-22T13:30:04;5.05;;;2.80;;
74749;SDS011;63269;53.330;-6.288;2023-06-22T13:32:30;4.32;;;2.92;;
74749;SDS011;63269;53.330;-6.288;2023-06-22T13:34:56;2.90;;;2.58;;
74749;SDS011;63269;53.330;-6.288;2023-06-22T13:37:21;3.63;;;2.78;;
74749;SDS011;63269;53.330;-6.288;2023-06-22T13:39:47;5.10;;;3.25;;
74749;SDS011;63269;53.330;-6.288;2023-06-22T13:42:12;4.55;;;2.80;;
74749;SDS011;63269;53.330;-6.288;2023-06-22T13:44:37;5.38;;;3.03;;
74749;SDS011;63269;53.330;-6.288;2023-06-22T13:47:03;4.28;;;2.40;;
74749;SDS011;63269;53.330;-6.288;2023-06-22T13:49:29;3.08;;;2.78;;
74749;SDS011;63269;53.330;-6.288;2023-06-22T13:51:55;3.58;;;2.70;;
74749;SDS011;63269;53.330;-6.288;2023-06-22T13:54:20;4.72;;;2.78;;
74749;SDS011;63269;53.330;-6.288;2023-06-22T13:56:46;3.50;;;3.00;;
74749;SDS011;63269;53.330;-6.288;2023-06-22T13:59:12;3.38;;;2.60;;
74749;SDS011;63269;53.330;-6.288;2023-06-22T14:01:37;4.50;;;3.17;;
74749;SDS011;63269;53.330;-6.288;2023-06-22T14:04:04;3.50;;;2.70;;
74749;SDS011;63269;53.330;-6.288;2023-06-22T14:06:30;4.05;;;2.80;;
74749;SDS011;63269;53.330;-6.288;2023-06-22T14:08:56;4.20;;;3.05;;
74749;SDS011;63269;53.330;-6.288;2023-06-22T14:11:21;3.15;;;2.42;;
74749;SDS011;63269;53.330;-6.288;2023-06-22T14:13:47;4.03;;;3.00;;
74749;SDS011;63269;53.330;-6.288;2023-06-22T14:16:12;6.03;;;2.67;;
74749;SDS011;63269;53.330;-6.288;2023-06-22T14:18:38;3.42;;;2.45;;
74749;SDS011;63269;53.330;-6.288;2023-06-22T14:21:03;3.38;;;2.65;;
74749;SDS011;63269;53.330;-6.288;2023-06-22T14:23:29;3.20;;;2.75;;
74749;SDS011;63269;53.330;-6.288;2023-06-22T14:25:54;3.47;;;2.53;;
74749;SDS011;63269;53.330;-6.288;2023-06-22T14:28:19;5.80;;;3.00;;
74749;SDS011;63269;53.330;-6.288;2023-06-22T14:30:45;4.53;;;2.80;;
74749;SDS011;63269;53.330;-6.288;2023-06-22T14:33:11;4.15;;;2.75;;
74749;SDS011;63269;53.330;-6.288;2023-06-22T14:35:37;4.50;;;3.03;;
74749;SDS011;63269;53.330;-6.288;2023-06-22T14:38:02;3.60;;;2.38;;
74749;SDS011;63269;53.330;-6.288;2023-06-22T14:40:28;3.90;;;2.90;;